createdAt,value
2022-10-23T00:00:56.987Z,100373.28
2022-10-23T00:03:23.619Z,100370.97
2022-10-23T00:05:49.984Z,100374.66
2022-10-23T00:08:16.596Z,100371.59
2022-10-23T00:10:43.890Z,100364.50
2022-10-23T00:13:10.736Z,100360.03
2022-10-23T00:15:37.582Z,100357.41
2022-10-23T00:18:24.137Z,100357.47
2022-10-23T00:21:13.420Z,100347.00
2022-10-23T00:24:00.139Z,100346.84
2022-10-23T00:26:49.562Z,100349.38
2022-10-23T00:29:36.144Z,100337.28
2022-10-23T00:32:22.581Z,100338.28
2022-10-23T00:34:49.234Z,100339.06
2022-10-23T00:37:15.835Z,100338.63
2022-10-23T00:39:43.043Z,100332.97
2022-10-23T00:42:17.422Z,100334.19
2022-10-23T00:44:43.753Z,100332.41
2022-10-23T00:47:11.301Z,100333.50
2022-10-23T00:49:41.964Z,100322.09
2022-10-23T00:52:12.678Z,100324.00
2022-10-23T00:54:41.608Z,100315.38
2022-10-23T00:57:12.533Z,100323.16
2022-10-23T00:59:39.803Z,100326.63
2022-10-23T01:02:08.818Z,100315.22
2022-10-23T01:04:37.478Z,100309.69
2022-10-23T01:07:28.286Z,100300.19
2022-10-23T01:10:34.115Z,100288.84
2022-10-23T01:13:08.861Z,100284.69
2022-10-23T01:15:52.658Z,100291.41
2022-10-23T01:18:34.931Z,100289.56
2022-10-23T01:21:10.174Z,100300.03
2022-10-23T01:24:09.183Z,100292.00
2022-10-23T01:26:49.956Z,100300.66
2022-10-23T01:29:26.664Z,100287.47
2022-10-23T01:32:09.754Z,100296.75
2022-10-23T01:35:13.793Z,100303.13
2022-10-23T01:37:47.481Z,100301.72
2022-10-23T01:40:23.854Z,100303.81
2022-10-23T01:42:55.199Z,100300.69
2022-10-23T01:45:32.742Z,100309.47
2022-10-23T01:48:02.567Z,100302.28
2022-10-23T01:50:30.810Z,100300.34
2022-10-23T01:53:04.150Z,100296.25
2022-10-23T01:55:32.745Z,100284.78
2022-10-23T01:58:03.372Z,100284.97
2022-10-23T02:00:40.467Z,100278.19
2022-10-23T02:03:09.489Z,100266.75
2022-10-23T02:05:39.127Z,100242.47
2022-10-23T02:08:06.955Z,100249.00
2022-10-23T02:11:04.571Z,100259.06
2022-10-23T02:13:39.706Z,100252.47
2022-10-23T02:16:30.420Z,100254.00
2022-10-23T02:19:03.043Z,100253.16
2022-10-23T02:21:39.172Z,100256.88
2022-10-23T02:24:11.816Z,100257.91
2022-10-23T02:26:46.324Z,100257.06
2022-10-23T02:29:18.343Z,100252.53
2022-10-23T02:31:46.005Z,100246.72
2022-10-23T02:34:12.942Z,100254.81
2022-10-23T02:36:40.367Z,100263.38
2022-10-23T02:39:07.484Z,100265.00
2022-10-23T02:41:44.086Z,100263.44
2022-10-23T02:44:34.132Z,100259.06
2022-10-23T02:47:32.131Z,100258.38
2022-10-23T02:50:05.584Z,100246.25
2022-10-23T02:52:49.385Z,100246.56
2022-10-23T02:55:38.811Z,100236.94
2022-10-23T02:58:05.899Z,100233.47
2022-10-23T03:00:34.907Z,100233.31
2022-10-23T03:03:29.199Z,100243.66
2022-10-23T03:05:56.173Z,100227.31
2022-10-23T03:08:22.881Z,100226.22
2022-10-23T03:10:49.526Z,100230.94
2022-10-23T03:13:17.829Z,100226.53
2022-10-23T03:15:44.686Z,100216.06
2022-10-23T03:18:13.823Z,100219.78
2022-10-23T03:20:44.993Z,100211.66
2022-10-23T03:23:13.397Z,100216.06
2022-10-23T03:25:40.123Z,100213.50
2022-10-23T03:28:06.485Z,100208.19
2022-10-23T03:30:34.895Z,100208.28
2022-10-23T03:33:01.682Z,100203.28
2022-10-23T03:35:28.063Z,100208.53
2022-10-23T03:37:54.906Z,100209.81
2022-10-23T03:40:24.870Z,100211.50
2022-10-23T03:42:51.936Z,100211.75
2022-10-23T03:45:19.859Z,100212.50
2022-10-23T03:47:50.535Z,100211.59
2022-10-23T03:50:18.377Z,100212.00
2022-10-23T03:52:45.428Z,100211.06
2022-10-23T03:55:12.678Z,100224.38
2022-10-23T03:57:39.299Z,100225.47
2022-10-23T04:00:07.182Z,100219.25
2022-10-23T04:02:43.087Z,100221.47
2022-10-23T04:05:10.641Z,100226.25
2022-10-23T04:07:39.271Z,100227.78
2022-10-23T04:10:06.752Z,100222.69
2022-10-23T04:12:34.445Z,100226.63
2022-10-23T04:15:00.842Z,100217.00
2022-10-23T04:19:55.010Z,100227.19
2022-10-23T04:22:24.738Z,100231.97
2022-10-23T04:24:54.149Z,100236.50
2022-10-23T04:27:20.872Z,100243.88
2022-10-23T04:29:51.042Z,100237.84
2022-10-23T04:32:19.388Z,100240.41
2022-10-23T04:34:46.213Z,100226.00
2022-10-23T04:37:13.143Z,100222.25
2022-10-23T04:39:39.815Z,100222.19
2022-10-23T04:42:06.189Z,100230.03
2022-10-23T04:44:32.815Z,100223.44
2022-10-23T04:46:59.681Z,100216.69
2022-10-23T04:49:28.562Z,100214.06
2022-10-23T04:52:14.719Z,100210.53
2022-10-23T04:55:05.128Z,100219.81
2022-10-23T04:57:40.771Z,100209.56
2022-10-23T05:00:12.408Z,100210.66
2022-10-23T05:02:51.534Z,100202.59
2022-10-23T05:05:19.926Z,100206.34
2022-10-23T05:08:18.241Z,100208.19
2022-10-23T05:11:12.863Z,100211.72
2022-10-23T05:13:43.744Z,100214.53
2022-10-23T05:16:21.944Z,100214.78
2022-10-23T05:18:48.811Z,100208.78
2022-10-23T05:21:22.115Z,100209.56
2022-10-23T05:23:50.645Z,100203.94
2022-10-23T05:26:17.650Z,100211.03
2022-10-23T05:28:46.483Z,100211.75
2022-10-23T05:31:18.217Z,100212.75
2022-10-23T05:33:49.163Z,100216.13
2022-10-23T05:36:16.691Z,100209.41
2022-10-23T05:38:45.942Z,100194.31
2022-10-23T05:41:17.804Z,100197.13
2022-10-23T05:43:46.302Z,100197.34
2022-10-23T05:46:33.242Z,100189.28
2022-10-23T05:49:31.656Z,100185.75
2022-10-23T05:52:12.225Z,100190.25
2022-10-23T05:54:59.220Z,100183.25
2022-10-23T05:57:47.674Z,100171.84
2022-10-23T06:00:17.754Z,100159.91
2022-10-23T06:02:52.197Z,100160.88
2022-10-23T06:05:33.859Z,100161.50
2022-10-23T06:08:33.947Z,100162.50
2022-10-23T06:11:11.739Z,100153.34
2022-10-23T06:13:38.826Z,100148.88
2022-10-23T06:16:15.002Z,100152.31
2022-10-23T06:18:42.499Z,100148.16
2022-10-23T06:21:14.206Z,100146.66
2022-10-23T06:23:43.084Z,100144.38
2022-10-23T06:26:38.139Z,100142.53
2022-10-23T06:29:10.606Z,100146.00
2022-10-23T06:31:39.286Z,100148.63
2022-10-23T06:34:06.080Z,100137.88
2022-10-23T06:36:33.228Z,100130.91
2022-10-23T06:39:20.739Z,100144.69
2022-10-23T06:42:12.707Z,100154.97
2022-10-23T06:44:54.524Z,100161.69
2022-10-23T06:47:49.497Z,100165.06
2022-10-23T06:50:34.436Z,100162.53
2022-10-23T06:53:06.900Z,100155.66
2022-10-23T06:58:10.968Z,100162.44
2022-10-23T07:00:52.294Z,100154.66
2022-10-23T07:03:19.155Z,100158.78
2022-10-23T07:05:47.715Z,100161.81
2022-10-23T07:08:16.040Z,100164.16
2022-10-23T07:10:45.211Z,100178.25
2022-10-23T07:13:12.248Z,100177.88
2022-10-23T07:15:40.676Z,100173.69
2022-10-23T07:18:14.690Z,100181.00
2022-10-23T07:20:59.695Z,100172.91
2022-10-23T07:23:28.685Z,100175.66
2022-10-23T07:25:55.457Z,100170.75
2022-10-23T07:28:23.186Z,100169.69
2022-10-23T07:30:57.440Z,100167.13
2022-10-23T07:33:24.157Z,100165.06
2022-10-23T07:35:58.116Z,100170.69
2022-10-23T07:38:27.861Z,100163.00
2022-10-23T07:40:57.685Z,100167.94
2022-10-23T07:43:25.622Z,100166.31
2022-10-23T07:45:53.108Z,100160.78
2022-10-23T07:48:27.127Z,100170.16
2022-10-23T07:51:03.398Z,100167.00
2022-10-23T07:53:31.221Z,100174.41
2022-10-23T07:56:12.960Z,100174.63
2022-10-23T07:58:59.431Z,100170.38
2022-10-23T08:01:39.293Z,100165.84
2022-10-23T08:04:06.784Z,100164.25
2022-10-23T08:06:35.825Z,100154.84
2022-10-23T08:09:06.263Z,100159.16
2022-10-23T08:11:37.928Z,100153.22
2022-10-23T08:14:08.327Z,100149.19
2022-10-23T08:16:37.568Z,100154.72
2022-10-23T08:19:24.198Z,100144.16
2022-10-23T08:21:54.676Z,100139.53
2022-10-23T08:24:21.447Z,100135.69
2022-10-23T08:26:50.430Z,100141.44
2022-10-23T08:29:19.457Z,100135.69
2022-10-23T08:31:47.430Z,100128.25
2022-10-23T08:34:22.272Z,100129.22
2022-10-23T08:36:50.554Z,100118.50
2022-10-23T08:39:17.559Z,100116.38
2022-10-23T08:42:01.000Z,100118.47
2022-10-23T08:44:51.755Z,100097.19
2022-10-23T08:47:30.883Z,100100.84
2022-10-23T08:50:27.107Z,100097.78
2022-10-23T08:53:02.611Z,100101.59
2022-10-23T08:56:04.373Z,100097.94
2022-10-23T09:01:43.392Z,100095.06
2022-10-23T09:04:12.867Z,100088.16
2022-10-23T09:07:03.692Z,100088.81
2022-10-23T09:09:41.699Z,100088.41
2022-10-23T09:12:13.531Z,100087.25
2022-10-23T09:15:04.856Z,100087.25
2022-10-23T09:17:34.324Z,100079.75
2022-10-23T09:20:13.441Z,100091.34
2022-10-23T09:22:41.886Z,100076.19
2022-10-23T09:25:16.455Z,100076.19
2022-10-23T09:27:50.635Z,100080.38
2022-10-23T09:30:37.748Z,100077.22
2022-10-23T09:33:26.583Z,100086.50
2022-10-23T09:35:57.578Z,100071.44
2022-10-23T09:38:31.887Z,100079.44
2022-10-23T09:41:24.551Z,100073.59
2022-10-23T09:44:19.970Z,100072.13
2022-10-23T09:47:08.814Z,100084.59
2022-10-23T09:49:35.262Z,100095.16
2022-10-23T09:52:08.054Z,100091.78
2022-10-23T09:54:57.730Z,100103.22
2022-10-23T09:57:44.939Z,100094.13
2022-10-23T10:00:14.935Z,100095.28
2022-10-23T10:02:44.140Z,100101.50
2022-10-23T10:05:27.523Z,100098.75
2022-10-23T10:07:59.980Z,100093.31
2022-10-23T10:10:34.646Z,100089.00
2022-10-23T10:13:14.261Z,100083.72
2022-10-23T10:15:50.370Z,100064.88
2022-10-23T10:18:29.888Z,100049.75
2022-10-23T10:21:13.353Z,100056.44
2022-10-23T10:24:20.196Z,100044.88
2022-10-23T10:27:19.458Z,100043.69
2022-10-23T10:30:02.915Z,100044.53
2022-10-23T10:33:04.663Z,100045.38
2022-10-23T10:35:52.560Z,100049.34
2022-10-23T10:38:44.725Z,100054.78
2022-10-23T10:41:50.126Z,100049.78
2022-10-23T10:44:21.995Z,100033.38
2022-10-23T10:46:58.680Z,100033.50
2022-10-23T10:49:50.801Z,100030.53
2022-10-23T10:52:38.658Z,100014.19
2022-10-23T10:55:24.120Z,100016.56
2022-10-23T10:57:59.270Z,100010.22
2022-10-23T11:00:29.739Z,100007.97
2022-10-23T11:03:22.399Z,100008.94
2022-10-23T11:05:51.128Z,100009.22
2022-10-23T11:08:49.855Z,100003.09
2022-10-23T11:11:31.923Z,100009.47
2022-10-23T11:13:58.990Z,100015.72
2022-10-23T11:16:32.304Z,100024.78
2022-10-23T11:19:14.091Z,100035.03
2022-10-23T11:21:56.220Z,100050.19
2022-10-23T11:24:48.164Z,100041.31
2022-10-23T11:27:31.255Z,100016.16
2022-10-23T11:30:17.951Z,100016.38
2022-10-23T11:33:28.487Z,99986.91
2022-10-23T11:36:05.997Z,99983.88
2022-10-23T11:38:38.985Z,99970.84
2022-10-23T11:41:22.311Z,99968.13
2022-10-23T11:44:01.830Z,99977.09
2022-10-23T11:46:33.801Z,99973.13
2022-10-23T11:49:03.191Z,99968.13
2022-10-23T11:51:37.964Z,99962.44
2022-10-23T11:54:13.503Z,99964.38
2022-10-23T11:56:55.325Z,99961.25
2022-10-23T11:59:28.356Z,99959.91
2022-10-23T12:01:57.192Z,99947.91
2022-10-23T12:04:38.636Z,99949.06
2022-10-23T12:07:18.125Z,99944.00
2022-10-23T12:09:51.814Z,99946.19
2022-10-23T12:12:30.350Z,99946.63
2022-10-23T12:15:11.596Z,99929.66
2022-10-23T12:17:40.034Z,99916.81
2022-10-23T12:20:12.565Z,99905.69
2022-10-23T12:22:45.832Z,99900.31
2022-10-23T12:25:16.425Z,99899.63
2022-10-23T12:27:52.263Z,99910.47
2022-10-23T12:30:34.935Z,99914.63
2022-10-23T12:33:40.034Z,99905.66
2022-10-23T12:36:42.140Z,99901.34
2022-10-23T12:39:31.022Z,99882.69
2022-10-23T12:42:00.063Z,99873.34
2022-10-23T12:44:29.237Z,99872.78
2022-10-23T12:46:59.399Z,99873.44
2022-10-23T12:49:28.574Z,99865.25
2022-10-23T12:52:06.485Z,99859.53
2022-10-23T12:54:39.111Z,99856.84
2022-10-23T12:57:22.487Z,99849.66
2022-10-23T12:59:51.255Z,99852.47
2022-10-23T13:02:22.756Z,99848.50
2022-10-23T13:04:52.619Z,99853.63
2022-10-23T13:07:23.095Z,99857.19
2022-10-23T13:09:50.199Z,99854.09
2022-10-23T13:12:30.866Z,99855.81
2022-10-23T13:15:06.566Z,99854.97
2022-10-23T13:17:45.183Z,99837.19
2022-10-23T13:20:18.091Z,99819.81
2022-10-23T13:22:47.509Z,99815.91
2022-10-23T13:25:24.175Z,99814.69
2022-10-23T13:27:52.808Z,99817.97
2022-10-23T13:30:34.183Z,99814.59
2022-10-23T13:33:02.099Z,99814.69
2022-10-23T13:35:28.866Z,99809.50
2022-10-23T13:37:55.405Z,99804.41
2022-10-23T13:40:27.623Z,99798.66
2022-10-23T13:42:55.914Z,99794.41
2022-10-23T13:45:25.864Z,99800.44
2022-10-23T13:47:52.879Z,99794.22
2022-10-23T13:50:19.567Z,99804.50
2022-10-23T13:52:47.087Z,99800.84
2022-10-23T13:55:24.539Z,99790.22
2022-10-23T13:57:51.413Z,99786.72
2022-10-23T14:00:19.223Z,99773.19
2022-10-23T14:02:46.265Z,99768.34
2022-10-23T14:05:12.931Z,99769.75
2022-10-23T14:07:40.225Z,99763.94
2022-10-23T14:10:07.076Z,99749.16
2022-10-23T14:12:44.230Z,99752.50
2022-10-23T14:15:11.790Z,99743.69
2022-10-23T14:17:39.011Z,99748.41
2022-10-23T14:20:06.413Z,99749.81
2022-10-23T14:22:33.516Z,99746.19
2022-10-23T14:24:59.875Z,99744.09
2022-10-23T14:27:26.320Z,99747.63
2022-10-23T14:29:52.908Z,99741.41
2022-10-23T14:32:19.524Z,99738.75
2022-10-23T14:34:51.215Z,99745.00
2022-10-23T14:37:18.872Z,99747.91
2022-10-23T14:39:49.746Z,99746.94
2022-10-23T14:42:18.194Z,99741.44
2022-10-23T14:44:44.704Z,99730.88
2022-10-23T14:47:12.067Z,99736.31
2022-10-23T14:49:40.013Z,99732.78
2022-10-23T14:52:07.269Z,99735.06
2022-10-23T14:54:36.583Z,99729.34
2022-10-23T14:57:03.472Z,99728.94
2022-10-23T14:59:30.428Z,99717.88
2022-10-23T15:01:57.087Z,99723.63
2022-10-23T15:04:23.931Z,99725.03
2022-10-23T15:06:50.573Z,99719.16
2022-10-23T15:09:19.838Z,99726.44
2022-10-23T15:11:48.000Z,99715.41
2022-10-23T15:14:14.529Z,99703.94
2022-10-23T15:16:43.818Z,99700.47
2022-10-23T15:19:15.476Z,99709.84
2022-10-23T15:21:44.900Z,99718.25
2022-10-23T15:24:11.617Z,99727.72
2022-10-23T15:26:38.476Z,99719.09
2022-10-23T15:29:05.444Z,99713.63
2022-10-23T15:31:37.818Z,99712.94
2022-10-23T15:34:05.006Z,99711.25
2022-10-23T15:36:32.140Z,99709.31
2022-10-23T15:38:59.533Z,99705.81
2022-10-23T15:41:31.338Z,99695.34
2022-10-23T15:43:58.919Z,99690.59
2022-10-23T15:46:25.959Z,99689.09
2022-10-23T15:48:53.217Z,99681.28
2022-10-23T15:51:20.571Z,99681.94
2022-10-23T15:53:47.331Z,99681.66
2022-10-23T15:56:13.863Z,99672.41
2022-10-23T15:58:40.254Z,99666.31
2022-10-23T16:01:07.285Z,99655.44
2022-10-23T16:03:34.790Z,99652.88
2022-10-23T16:06:10.130Z,99656.25
2022-10-23T16:08:37.828Z,99665.56
2022-10-23T16:11:12.468Z,99654.25
2022-10-23T16:13:39.089Z,99663.41
2022-10-23T16:16:05.875Z,99669.13
2022-10-23T16:18:32.253Z,99660.06
2022-10-23T16:20:58.869Z,99656.00
2022-10-23T16:23:28.293Z,99639.53
2022-10-23T16:25:55.125Z,99637.81
2022-10-23T16:28:21.849Z,99628.88
2022-10-23T16:30:48.571Z,99616.97
2022-10-23T16:33:15.232Z,99617.22
2022-10-23T16:35:41.642Z,99625.88
2022-10-23T16:38:15.204Z,99629.44
2022-10-23T16:40:41.733Z,99623.69
2022-10-23T16:43:27.641Z,99626.66
2022-10-23T16:46:12.167Z,99629.88
2022-10-23T16:48:39.863Z,99625.25
2022-10-23T16:51:08.629Z,99616.34
2022-10-23T16:53:36.179Z,99609.81
2022-10-23T16:56:07.529Z,99604.34
2022-10-23T16:58:35.067Z,99597.44
2022-10-23T17:01:05.978Z,99608.97
2022-10-23T17:03:40.940Z,99596.28
2022-10-23T17:06:11.359Z,99594.72
2022-10-23T17:08:38.565Z,99602.00
2022-10-23T17:11:18.323Z,99623.03
2022-10-23T17:13:47.316Z,99620.25
2022-10-23T17:16:17.215Z,99630.59
2022-10-23T17:18:45.236Z,99634.06
2022-10-23T17:21:13.140Z,99639.38
2022-10-23T17:23:39.637Z,99650.25
2022-10-23T17:26:08.811Z,99665.34
2022-10-23T17:28:39.790Z,99668.22
2022-10-23T17:31:16.779Z,99666.41
2022-10-23T17:33:44.658Z,99674.59
2022-10-23T17:36:13.011Z,99681.72
2022-10-23T17:38:41.060Z,99687.00
2022-10-23T17:41:08.300Z,99705.50
2022-10-23T17:43:35.397Z,99723.53
2022-10-23T17:46:06.971Z,99722.00
2022-10-23T17:48:34.992Z,99758.00
2022-10-23T17:51:08.886Z,99807.44
2022-10-23T17:53:38.108Z,99892.47
2022-10-23T17:56:06.439Z,99923.81
2022-10-23T17:58:33.548Z,99912.19
2022-10-23T18:01:12.246Z,99924.38
2022-10-23T18:03:39.088Z,99935.97
2022-10-23T18:06:10.576Z,99920.44
2022-10-23T18:08:37.880Z,99898.41
2022-10-23T18:11:05.036Z,99902.03
2022-10-23T18:13:36.328Z,99885.94
2022-10-23T18:16:05.960Z,99899.97
2022-10-23T18:18:33.852Z,99889.41
2022-10-23T18:21:01.794Z,99897.78
2022-10-23T18:23:29.627Z,99867.06
2022-10-23T18:25:58.166Z,99822.13
2022-10-23T18:28:25.449Z,99864.53
2022-10-23T18:30:54.781Z,99825.09
2022-10-23T18:33:24.121Z,99807.72
2022-10-23T18:35:50.740Z,99793.69
2022-10-23T18:38:17.381Z,99787.22
2022-10-23T18:40:44.398Z,99787.81
2022-10-23T18:43:14.961Z,99812.16
2022-10-23T18:45:42.809Z,99811.44
2022-10-23T18:48:09.226Z,99826.44
2022-10-23T18:50:37.152Z,99835.19
2022-10-23T18:53:04.173Z,99840.31
2022-10-23T18:55:31.019Z,99839.94
2022-10-23T18:57:57.814Z,99833.22
2022-10-23T19:00:24.456Z,99845.44
2022-10-23T19:02:52.447Z,99844.84
2022-10-23T19:05:19.898Z,99835.25
2022-10-23T19:07:48.171Z,99835.13
2022-10-23T19:10:17.871Z,99829.84
2022-10-23T19:12:44.931Z,99819.19
2022-10-23T19:15:11.566Z,99817.75
2022-10-23T19:17:38.555Z,99825.19
2022-10-23T19:20:14.605Z,99811.50
2022-10-23T19:22:44.727Z,99800.00
2022-10-23T19:25:19.636Z,99801.69
2022-10-23T19:27:47.705Z,99799.06
2022-10-23T19:30:20.552Z,99799.16
2022-10-23T19:32:49.743Z,99793.56
2022-10-23T19:35:20.388Z,99800.63
2022-10-23T19:37:47.436Z,99804.84
2022-10-23T19:40:14.969Z,99797.75
2022-10-23T19:42:42.779Z,99803.03
2022-10-23T19:45:12.993Z,99795.47
2022-10-23T19:47:40.761Z,99794.66
2022-10-23T19:50:09.213Z,99791.03
2022-10-23T19:52:36.433Z,99794.06
2022-10-23T19:55:04.995Z,99793.44
2022-10-23T19:57:33.794Z,99797.31
2022-10-23T20:00:01.542Z,99800.06
2022-10-23T20:02:28.285Z,99796.22
2022-10-23T20:04:54.744Z,99801.59
2022-10-23T20:07:21.965Z,99800.91
2022-10-23T20:09:48.584Z,99808.88
2022-10-23T20:12:15.026Z,99802.03
2022-10-23T20:14:41.467Z,99799.78
2022-10-23T20:17:08.210Z,99796.75
2022-10-23T20:19:34.896Z,99801.91
2022-10-23T20:22:01.399Z,99798.56
2022-10-23T20:24:27.860Z,99805.63
2022-10-23T20:26:56.153Z,99801.56
2022-10-23T20:29:24.630Z,99818.84
2022-10-23T20:31:51.333Z,99811.66
2022-10-23T20:34:19.387Z,99820.66
2022-10-23T20:36:48.592Z,99814.66
2022-10-23T20:39:19.125Z,99825.09
2022-10-23T20:41:46.639Z,99819.22
2022-10-23T20:46:43.725Z,99830.88
2022-10-23T20:49:12.116Z,99827.28
2022-10-23T20:51:38.652Z,99820.44
2022-10-23T20:54:05.805Z,99824.38
2022-10-23T20:56:35.704Z,99826.34
2022-10-23T20:59:03.237Z,99829.69
2022-10-23T21:01:30.985Z,99829.81
2022-10-23T21:03:59.316Z,99843.63
2022-10-23T21:06:27.908Z,99845.31
2022-10-23T21:09:01.930Z,99854.28
2022-10-23T21:11:28.980Z,99860.06
2022-10-23T21:14:06.272Z,99860.25
2022-10-23T21:16:35.380Z,99857.50
2022-10-23T21:19:03.167Z,99846.75
2022-10-23T21:21:33.180Z,99861.03
2022-10-23T21:24:00.080Z,99874.50
2022-10-23T21:26:28.546Z,99869.59
2022-10-23T21:29:16.848Z,99873.69
2022-10-23T21:31:42.117Z,99866.38
2022-10-23T21:34:08.542Z,99868.63
2022-10-23T21:36:48.273Z,99878.50
2022-10-23T21:39:21.838Z,99866.50
2022-10-23T21:41:49.315Z,99871.03
2022-10-23T21:44:15.721Z,99871.78
2022-10-23T21:46:42.324Z,99871.78
2022-10-23T21:49:10.606Z,99876.25
2022-10-23T21:51:37.673Z,99879.84
2022-10-23T21:54:11.154Z,99876.09
2022-10-23T21:56:43.614Z,99875.59
2022-10-23T21:59:13.491Z,99868.63
2022-10-23T22:01:41.657Z,99873.22
2022-10-23T22:04:09.712Z,99865.22
2022-10-23T22:06:38.248Z,99862.56
2022-10-23T22:09:05.490Z,99853.44
2022-10-23T22:11:32.328Z,99869.94
2022-10-23T22:13:59.881Z,99866.00
2022-10-23T22:16:27.025Z,99870.66
2022-10-23T22:18:53.468Z,99875.13
2022-10-23T22:21:22.738Z,99871.28
2022-10-23T22:23:49.915Z,99875.81
2022-10-23T22:26:22.199Z,99871.28
2022-10-23T22:28:51.004Z,99869.31
2022-10-23T22:31:19.772Z,99870.59
2022-10-23T22:33:46.719Z,99867.34
2022-10-23T22:36:13.659Z,99872.84
2022-10-23T22:38:40.836Z,99864.41
2022-10-23T22:41:07.837Z,99866.44
2022-10-23T22:43:34.228Z,99867.09
2022-10-23T22:46:19.304Z,99875.53
2022-10-23T22:48:45.954Z,99874.78
2022-10-23T22:51:15.022Z,99879.84
2022-10-23T22:53:42.093Z,99870.00
2022-10-23T22:56:10.830Z,99875.78
2022-10-23T22:58:37.777Z,99871.69
2022-10-23T23:01:15.306Z,99862.84
2022-10-23T23:03:42.364Z,99866.44
2022-10-23T23:06:09.451Z,99867.06
2022-10-23T23:08:38.284Z,99884.56
2022-10-23T23:11:05.816Z,99886.44
2022-10-23T23:13:33.144Z,99876.44
2022-10-23T23:15:59.731Z,99879.81
2022-10-23T23:18:27.271Z,99876.88
2022-10-23T23:20:53.663Z,99868.38
2022-10-23T23:23:21.010Z,99863.19
2022-10-23T23:25:49.907Z,99874.38
2022-10-23T23:28:19.986Z,99874.22
2022-10-23T23:30:47.288Z,99872.63
2022-10-23T23:33:15.620Z,99874.06
2022-10-23T23:35:43.949Z,99874.91
2022-10-23T23:38:11.619Z,99872.03
2022-10-23T23:40:38.989Z,99867.91
2022-10-23T23:43:06.401Z,99865.53
2022-10-23T23:45:32.934Z,99865.63
2022-10-23T23:47:59.784Z,99867.94
2022-10-23T23:50:29.008Z,99865.56
2022-10-23T23:52:55.583Z,99864.53
2022-10-23T23:55:22.227Z,99873.00
2022-10-23T23:57:48.822Z,99880.84
